createdAt,value
2022-11-16T00:04:17.145Z,2.24
2022-11-16T00:09:27.275Z,2.10
2022-11-16T00:14:32.633Z,2.08
2022-11-16T00:19:34.965Z,1.74
2022-11-16T00:24:37.059Z,1.92
2022-11-16T00:29:39.085Z,2.23
2022-11-16T00:34:41.318Z,1.70
2022-11-16T00:39:43.712Z,1.37
2022-11-16T00:44:48.068Z,1.46
2022-11-16T00:49:50.233Z,1.94
2022-11-16T00:54:53.008Z,1.89
2022-11-16T00:59:55.392Z,1.95
2022-11-16T01:04:58.731Z,1.80
2022-11-16T01:10:01.009Z,1.64
2022-11-16T01:15:04.160Z,1.77
2022-11-16T01:20:09.421Z,1.82
2022-11-16T01:25:13.397Z,1.99
2022-11-16T01:30:17.017Z,1.74
2022-11-16T01:35:29.200Z,1.64
2022-11-16T01:40:31.540Z,1.26
2022-11-16T01:45:39.036Z,1.87
2022-11-16T01:50:45.610Z,1.87
2022-11-16T01:55:49.147Z,1.44
2022-11-16T02:01:24.021Z,1.40
2022-11-16T02:07:12.586Z,1.69
2022-11-16T02:12:24.606Z,1.77
2022-11-16T02:17:51.379Z,1.60
2022-11-16T02:22:58.821Z,1.52
2022-11-16T02:28:25.944Z,1.57
2022-11-16T02:33:34.036Z,1.59
2022-11-16T02:38:41.020Z,1.74
2022-11-16T02:43:47.134Z,1.84
2022-11-16T02:48:53.633Z,1.65
2022-11-16T02:54:11.876Z,1.85
2022-11-16T02:59:17.878Z,1.57
2022-11-16T03:04:32.941Z,1.94
2022-11-16T03:09:39.298Z,2.32
2022-11-16T03:14:59.659Z,2.12
2022-11-16T03:20:06.981Z,2.34
2022-11-16T03:25:20.359Z,2.46
2022-11-16T03:30:29.809Z,2.73
2022-11-16T03:35:42.525Z,2.77
2022-11-16T03:40:47.811Z,2.63
2022-11-16T03:45:50.951Z,2.75
2022-11-16T03:50:53.849Z,2.97
2022-11-16T03:55:56.649Z,3.08
2022-11-16T04:00:59.399Z,3.36
2022-11-16T04:06:22.440Z,3.12
2022-11-16T04:11:43.303Z,3.44
2022-11-16T04:17:04.785Z,3.35
2022-11-16T04:22:36.687Z,3.49
2022-11-16T04:28:11.411Z,3.29
2022-11-16T04:33:33.272Z,3.01
2022-11-16T04:38:36.801Z,3.22
2022-11-16T04:43:39.566Z,3.74
2022-11-16T04:48:41.708Z,3.50
2022-11-16T04:53:45.047Z,3.90
2022-11-16T04:58:55.393Z,3.82
2022-11-16T05:03:58.345Z,3.91
2022-11-16T05:09:03.198Z,3.91
2022-11-16T05:14:10.476Z,3.96
2022-11-16T05:19:33.300Z,4.01
2022-11-16T05:24:37.157Z,3.92
2022-11-16T05:29:46.520Z,4.00
2022-11-16T05:34:52.138Z,4.17
2022-11-16T05:39:55.126Z,4.31
2022-11-16T05:45:02.362Z,4.23
2022-11-16T05:50:04.992Z,4.62
2022-11-16T05:55:15.706Z,4.78
2022-11-16T06:00:19.733Z,5.07
2022-11-16T06:05:26.244Z,5.15
2022-11-16T06:10:30.047Z,4.93
2022-11-16T06:15:38.409Z,5.05
2022-11-16T06:20:42.242Z,5.15
2022-11-16T06:25:45.338Z,5.29
2022-11-16T06:30:48.929Z,5.16
2022-11-16T06:35:51.463Z,5.13
2022-11-16T06:40:59.428Z,5.42
2022-11-16T06:46:04.554Z,5.25
2022-11-16T06:51:07.231Z,5.52
2022-11-16T06:56:13.833Z,5.59
2022-11-16T07:01:21.237Z,6.12
2022-11-16T07:06:27.955Z,10.22
2022-11-16T07:11:31.923Z,17.80
2022-11-16T07:16:38.346Z,20.86
2022-11-16T07:21:43.884Z,22.29
2022-11-16T07:26:51.111Z,22.99
2022-11-16T07:31:56.958Z,23.40
2022-11-16T07:37:12.121Z,22.46
2022-11-16T07:42:15.445Z,21.99
2022-11-16T07:47:40.132Z,21.87
2022-11-16T07:53:17.742Z,21.92
2022-11-16T07:58:21.249Z,22.07
2022-11-16T08:03:25.011Z,21.98
2022-11-16T08:08:29.813Z,22.21
2022-11-16T08:13:34.622Z,22.79
2022-11-16T08:18:39.093Z,22.64
2022-11-16T08:23:42.571Z,22.59
2022-11-16T08:28:47.013Z,22.42
2022-11-16T08:33:52.118Z,22.60
2022-11-16T08:38:55.418Z,22.88
2022-11-16T08:44:00.876Z,23.54
2022-11-16T08:49:04.757Z,23.76
2022-11-16T08:54:07.807Z,24.30
2022-11-16T08:59:12.859Z,24.59
2022-11-16T09:04:20.985Z,24.35
2022-11-16T09:09:23.587Z,24.47
2022-11-16T09:14:27.864Z,23.48
2022-11-16T09:19:30.075Z,24.26
2022-11-16T09:24:32.345Z,24.71
2022-11-16T09:29:34.663Z,24.55
2022-11-16T09:34:37.180Z,25.29
2022-11-16T09:39:39.457Z,24.60
2022-11-16T09:45:00.797Z,25.33
2022-11-16T09:50:06.126Z,23.73
2022-11-16T09:55:40.717Z,24.61
2022-11-16T10:00:50.395Z,24.67
2022-11-16T10:06:05.930Z,25.07
2022-11-16T10:11:17.484Z,25.93
2022-11-16T10:16:34.464Z,24.80
2022-11-16T10:21:45.557Z,24.18
2022-11-16T10:26:48.020Z,24.62
2022-11-16T10:32:08.756Z,24.02
2022-11-16T10:37:13.473Z,22.80
2022-11-16T10:42:34.355Z,22.63
2022-11-16T10:47:42.947Z,21.29
2022-11-16T10:52:45.243Z,21.09
2022-11-16T10:57:56.547Z,20.11
2022-11-16T11:02:58.750Z,19.54
2022-11-16T11:08:02.769Z,19.42
2022-11-16T11:13:07.904Z,19.32
2022-11-16T11:18:19.474Z,18.70
2022-11-16T11:23:24.462Z,18.66
2022-11-16T11:28:33.860Z,18.87
2022-11-16T11:33:39.715Z,18.60
2022-11-16T11:44:29.349Z,18.55
2022-11-16T11:49:42.391Z,18.41
2022-11-16T11:54:49.317Z,18.36
2022-11-16T11:59:54.642Z,18.62
2022-11-16T12:05:18.593Z,18.56
2022-11-16T12:10:32.906Z,17.95
2022-11-16T12:15:43.605Z,18.08
2022-11-16T12:20:46.992Z,18.17
2022-11-16T12:26:02.408Z,18.00
2022-11-16T12:31:17.726Z,17.98
2022-11-16T12:36:45.281Z,17.87
2022-11-16T12:41:53.558Z,17.79
2022-11-16T12:47:12.105Z,17.91
2022-11-16T12:52:49.721Z,17.90
2022-11-16T12:58:03.618Z,17.89
2022-11-16T13:03:33.890Z,17.79
2022-11-16T13:08:59.220Z,17.47
2022-11-16T13:14:05.581Z,17.30
2022-11-16T13:19:11.975Z,17.11
2022-11-16T13:24:44.930Z,17.25
2022-11-16T13:30:11.232Z,16.98
2022-11-16T13:35:16.048Z,17.11
2022-11-16T13:40:26.270Z,17.01
2022-11-16T13:45:38.387Z,16.72
2022-11-16T13:50:49.569Z,16.31
2022-11-16T13:56:01.335Z,16.19
2022-11-16T14:01:15.655Z,15.80
2022-11-16T14:06:26.180Z,15.62
2022-11-16T14:11:40.623Z,15.30
2022-11-16T14:16:46.371Z,14.78
2022-11-16T14:21:57.351Z,14.46
2022-11-16T14:27:10.846Z,14.19
2022-11-16T14:32:21.911Z,13.71
2022-11-16T14:37:30.086Z,13.46
2022-11-16T14:42:48.356Z,13.18
2022-11-16T14:48:17.542Z,12.59
2022-11-16T14:53:20.557Z,12.52
2022-11-16T14:58:23.917Z,12.01
2022-11-16T15:03:30.362Z,11.66
2022-11-16T15:08:47.547Z,11.46
2022-11-16T15:13:54.638Z,10.91
2022-11-16T15:19:04.928Z,11.11
2022-11-16T15:24:29.439Z,11.11
2022-11-16T15:29:32.173Z,10.79
2022-11-16T15:34:34.607Z,10.31
2022-11-16T15:39:37.224Z,10.31
2022-11-16T15:44:39.754Z,10.10
2022-11-16T15:49:44.240Z,10.30
2022-11-16T15:55:03.951Z,9.84
2022-11-16T16:00:06.827Z,10.01
2022-11-16T16:05:32.520Z,9.75
2022-11-16T16:10:34.829Z,9.61
2022-11-16T16:15:37.105Z,9.38
2022-11-16T16:20:40.693Z,9.08
2022-11-16T16:25:50.342Z,8.90
2022-11-16T16:30:59.741Z,8.78
2022-11-16T16:36:08.839Z,8.86
2022-11-16T16:41:24.458Z,8.95
2022-11-16T16:46:27.695Z,8.53
2022-11-16T16:51:29.845Z,8.66
2022-11-16T16:56:32.088Z,8.78
2022-11-16T17:01:34.410Z,8.48
2022-11-16T17:06:36.800Z,8.55
2022-11-16T17:11:39.455Z,8.27
2022-11-16T17:16:41.932Z,8.46
2022-11-16T17:21:47.014Z,8.18
2022-11-16T17:26:51.402Z,7.98
2022-11-16T17:31:55.010Z,7.83
2022-11-16T17:36:57.178Z,7.55
2022-11-16T17:42:00.447Z,7.37
2022-11-16T17:47:02.975Z,7.43
2022-11-16T17:52:05.285Z,7.46
2022-11-16T17:57:07.418Z,7.57
2022-11-16T18:02:27.709Z,7.40
2022-11-16T18:07:30.651Z,7.20
2022-11-16T18:12:32.874Z,7.27
2022-11-16T18:17:36.504Z,7.18
2022-11-16T18:22:38.873Z,6.98
2022-11-16T18:27:41.119Z,7.18
2022-11-16T18:32:43.237Z,7.13
2022-11-16T18:37:45.316Z,6.64
2022-11-16T18:42:47.678Z,6.60
2022-11-16T18:47:49.841Z,6.91
2022-11-16T18:52:51.914Z,6.85
2022-11-16T18:57:54.247Z,6.79
2022-11-16T19:02:56.383Z,6.63
2022-11-16T19:07:58.778Z,6.75
2022-11-16T19:13:01.118Z,6.64
2022-11-16T19:18:22.302Z,6.73
2022-11-16T19:23:24.933Z,6.79
2022-11-16T19:28:30.965Z,6.93
2022-11-16T19:33:33.728Z,7.06
2022-11-16T19:38:36.526Z,7.08
2022-11-16T19:43:39.101Z,7.07
2022-11-16T19:48:41.510Z,6.95
2022-11-16T19:53:44.019Z,7.18
2022-11-16T19:58:46.942Z,7.17
2022-11-16T20:03:49.974Z,6.86
2022-11-16T20:08:54.092Z,6.89
2022-11-16T20:13:58.404Z,7.08
2022-11-16T20:19:00.778Z,6.76
2022-11-16T20:24:06.845Z,6.91
2022-11-16T20:29:14.802Z,6.85
2022-11-16T20:34:18.724Z,7.11
2022-11-16T20:39:21.269Z,6.98
2022-11-16T20:44:23.510Z,6.94
2022-11-16T20:49:25.740Z,7.05
2022-11-16T20:54:27.883Z,7.09
2022-11-16T20:59:30.006Z,7.09
2022-11-16T21:04:32.180Z,7.22
2022-11-16T21:09:54.308Z,7.05
2022-11-16T21:14:56.565Z,6.98
2022-11-16T21:20:25.427Z,7.18
2022-11-16T21:25:21.231Z,7.50
2022-11-16T21:30:23.409Z,7.16
2022-11-16T21:35:27.227Z,7.07
2022-11-16T21:40:29.498Z,7.40
2022-11-16T21:45:31.630Z,7.56
2022-11-16T21:50:33.712Z,7.67
2022-11-16T21:55:35.877Z,7.72
2022-11-16T22:00:38.105Z,7.62
2022-11-16T22:06:15.857Z,7.80
2022-11-16T22:11:22.372Z,7.58
2022-11-16T22:16:24.576Z,7.58
2022-11-16T22:21:26.802Z,7.25
2022-11-16T22:26:28.994Z,7.27
2022-11-16T22:31:31.200Z,7.27
2022-11-16T22:36:33.497Z,7.37
2022-11-16T22:41:35.782Z,7.50
2022-11-16T22:46:37.975Z,7.44
2022-11-16T22:51:40.066Z,7.44
2022-11-16T22:56:43.147Z,7.56
2022-11-16T23:01:45.428Z,7.18
2022-11-16T23:06:47.526Z,7.26
2022-11-16T23:12:07.775Z,7.35
2022-11-16T23:17:09.999Z,7.55
2022-11-16T23:22:36.903Z,7.63
2022-11-16T23:27:54.159Z,7.79
2022-11-16T23:32:56.399Z,7.54
2022-11-16T23:38:00.618Z,7.78
2022-11-16T23:43:23.235Z,7.94
2022-11-16T23:48:25.456Z,8.00
2022-11-16T23:53:27.567Z,8.03
2022-11-16T23:58:29.740Z,8.19
